createdAt,value
2018-10-21T00:00:42.316Z,9.46
2018-10-21T00:01:41.981Z,9.4
2018-10-21T00:02:42.476Z,9.39
2018-10-21T00:03:42.471Z,9.39
2018-10-21T00:04:42.204Z,9.37
2018-10-21T00:05:42.190Z,9.32
2018-10-21T00:06:42.443Z,9.31
2018-10-21T00:07:42.179Z,9.23
2018-10-21T00:08:42.196Z,9.29
2018-10-21T00:09:42.421Z,9.29
2018-10-21T00:10:42.428Z,9.22
2018-10-21T00:11:42.422Z,9.22
2018-10-21T00:12:42.431Z,9.13
2018-10-21T00:13:42.156Z,9.11
2018-10-21T00:14:42.149Z,9.13
2018-10-21T00:15:42.122Z,8.99
2018-10-21T00:16:41.869Z,9.1
2018-10-21T00:17:42.391Z,9.1
2018-10-21T00:18:42.381Z,9.03
2018-10-21T00:19:41.877Z,9.02
2018-10-21T00:20:42.119Z,9.1
2018-10-21T00:21:42.113Z,9.13
2018-10-21T00:22:42.366Z,9.14
2018-10-21T00:23:42.378Z,9.22
2018-10-21T00:24:42.088Z,9.22
2018-10-21T00:25:42.344Z,9.14
2018-10-21T00:26:42.337Z,9.28
2018-10-21T00:27:41.818Z,9.29
2018-10-21T00:28:42.087Z,9.34
2018-10-21T00:29:41.803Z,9.22
2018-10-21T00:30:42.327Z,9.26
2018-10-21T00:31:42.064Z,9.23
2018-10-21T00:32:42.052Z,9.19
2018-10-21T00:33:42.315Z,9.16
2018-10-21T00:34:42.035Z,9.06
2018-10-21T00:35:42.024Z,9.13
2018-10-21T00:36:42.012Z,9.03
2018-10-21T00:37:42.513Z,9.03
2018-10-21T00:38:41.751Z,9.06
2018-10-21T00:39:42.292Z,9.04
2018-10-21T00:40:42.264Z,9.13
2018-10-21T00:41:41.999Z,9.08
2018-10-21T00:42:41.991Z,9.14
2018-10-21T00:43:42.239Z,9.11
2018-10-21T00:44:42.234Z,9.04
2018-10-21T00:45:42.233Z,9.14
2018-10-21T00:46:42.034Z,9.04
2018-10-21T00:47:42.240Z,9.02
2018-10-21T00:48:42.210Z,9.03
2018-10-21T00:49:42.233Z,9.03
2018-10-21T00:50:42.212Z,9.02
2018-10-21T00:51:41.947Z,9.03
2018-10-21T00:52:41.936Z,8.95
2018-10-21T00:53:42.208Z,8.99
2018-10-21T00:54:41.919Z,9.02
2018-10-21T00:55:41.910Z,8.94
2018-10-21T00:56:42.176Z,8.94
2018-10-21T00:57:41.913Z,9.04
2018-10-21T00:58:42.153Z,9
2018-10-21T00:59:41.880Z,8.87
2018-10-21T01:00:42.140Z,8.94
2018-10-21T01:01:42.157Z,8.89
2018-10-21T01:02:41.890Z,8.85
2018-10-21T01:03:42.120Z,8.89
2018-10-21T01:04:42.118Z,8.95
2018-10-21T01:05:41.875Z,8.95
2018-10-21T01:06:42.110Z,8.85
2018-10-21T01:07:41.842Z,8.87
2018-10-21T01:08:41.861Z,8.85
2018-10-21T01:09:41.574Z,8.84
2018-10-21T01:10:41.831Z,8.84
2018-10-21T01:11:42.075Z,8.82
2018-10-21T01:12:42.071Z,8.81
2018-10-21T01:13:42.074Z,8.87
2018-10-21T01:14:42.055Z,8.91
2018-10-21T01:15:41.797Z,8.88
2018-10-21T01:16:42.044Z,8.82
2018-10-21T01:17:42.039Z,8.82
2018-10-21T01:18:42.335Z,8.74
2018-10-21T01:19:41.765Z,8.67
2018-10-21T01:20:42.021Z,8.79
2018-10-21T01:21:42.029Z,8.73
2018-10-21T01:22:42.012Z,8.7
2018-10-21T01:23:41.745Z,8.7
2018-10-21T01:24:41.748Z,8.67
2018-10-21T01:25:41.733Z,8.67
2018-10-21T01:26:41.980Z,8.61
2018-10-21T01:27:41.719Z,8.63
2018-10-21T01:28:41.969Z,8.61
2018-10-21T01:29:41.981Z,8.55
2018-10-21T01:30:41.703Z,8.56
2018-10-21T01:31:41.956Z,8.51
2018-10-21T01:32:41.692Z,8.56
2018-10-21T01:33:41.943Z,8.56
2018-10-21T01:34:41.956Z,8.61
2018-10-21T01:35:41.940Z,8.56
2018-10-21T01:36:42.343Z,8.61
2018-10-21T01:37:41.756Z,8.49
2018-10-21T01:38:42.459Z,8.55
2018-10-21T01:39:41.647Z,8.52
2018-10-21T01:40:41.905Z,8.6
2018-10-21T01:41:41.645Z,8.48
2018-10-21T01:42:41.895Z,8.49
2018-10-21T01:43:41.886Z,8.53
2018-10-21T01:44:41.880Z,8.42
2018-10-21T01:45:41.871Z,8.45
2018-10-21T01:46:41.885Z,8.55
2018-10-21T01:47:41.604Z,8.53
2018-10-21T01:48:43.199Z,8.6
2018-10-21T01:49:41.589Z,8.49
2018-10-21T01:50:41.858Z,8.48
2018-10-21T01:51:41.861Z,8.53
2018-10-21T01:52:41.852Z,8.48
2018-10-21T01:53:41.323Z,8.52
2018-10-21T01:54:41.565Z,8.55
2018-10-21T01:55:41.823Z,8.51
2018-10-21T01:56:41.293Z,8.53
2018-10-21T01:57:41.288Z,8.52
2018-10-21T01:58:41.608Z,8.52
2018-10-21T01:59:41.282Z,8.44
2018-10-21T02:00:41.785Z,8.42
2018-10-21T02:01:41.530Z,8.38
2018-10-21T02:02:41.786Z,8.41
2018-10-21T02:03:41.782Z,8.42
2018-10-21T02:04:41.502Z,8.38
2018-10-21T02:05:41.756Z,8.44
2018-10-21T02:06:41.752Z,8.34
2018-10-21T02:07:41.497Z,8.31
2018-10-21T02:08:41.493Z,8.3
2018-10-21T02:09:41.472Z,8.28
2018-10-21T02:10:41.725Z,8.19
2018-10-21T02:11:41.460Z,8.27
2018-10-21T02:12:41.724Z,8.2
2018-10-21T02:13:41.462Z,8.24
2018-10-21T02:14:41.461Z,8.3
2018-10-21T02:15:41.687Z,8.27
2018-10-21T02:16:41.697Z,8.3
2018-10-21T02:17:41.418Z,8.26
2018-10-21T02:18:41.691Z,8.34
2018-10-21T02:19:41.171Z,8.49
2018-10-21T02:20:41.404Z,8.52
2018-10-21T02:21:41.651Z,8.49
2018-10-21T02:22:41.388Z,8.44
2018-10-21T02:23:41.383Z,8.52
2018-10-21T02:24:41.626Z,8.46
2018-10-21T02:25:41.135Z,8.52
2018-10-21T02:26:41.435Z,8.52
2018-10-21T02:27:41.383Z,8.56
2018-10-21T02:28:41.600Z,8.53
2018-10-21T02:29:41.373Z,8.6
2018-10-21T02:30:41.353Z,8.55
2018-10-21T02:31:41.327Z,8.56
2018-10-21T02:32:41.598Z,8.64
2018-10-21T02:33:41.790Z,8.55
2018-10-21T02:34:41.565Z,8.6
2018-10-21T02:35:41.578Z,8.55
2018-10-21T02:36:41.308Z,8.52
2018-10-21T02:37:41.612Z,8.56
2018-10-21T02:38:41.302Z,8.61
2018-10-21T02:39:41.282Z,8.6
2018-10-21T02:40:41.275Z,8.58
2018-10-21T02:41:41.297Z,8.63
2018-10-21T02:42:41.517Z,8.63
2018-10-21T02:43:41.260Z,8.61
2018-10-21T02:44:41.260Z,8.61
2018-10-21T02:45:41.503Z,8.51
2018-10-21T02:46:41.249Z,8.42
2018-10-21T02:47:41.491Z,8.42
2018-10-21T02:48:41.480Z,8.45
2018-10-21T02:49:40.969Z,8.44
2018-10-21T02:50:41.217Z,8.38
2018-10-21T02:51:41.530Z,8.34
2018-10-21T02:52:41.446Z,8.24
2018-10-21T02:53:41.213Z,8.24
2018-10-21T02:54:41.198Z,8.2
2018-10-21T02:55:41.192Z,8.23
2018-10-21T02:56:41.437Z,8.18
2018-10-21T02:57:41.183Z,8.13
2018-10-21T02:58:40.914Z,8.19
2018-10-21T02:59:41.424Z,8.18
2018-10-21T03:00:41.155Z,8.24
2018-10-21T03:01:40.882Z,8.24
2018-10-21T03:02:41.128Z,8.28
2018-10-21T03:03:41.410Z,8.2
2018-10-21T03:04:41.121Z,8.34
2018-10-21T03:05:41.380Z,8.3
2018-10-21T03:06:41.106Z,8.42
2018-10-21T03:07:40.841Z,8.46
2018-10-21T03:08:41.368Z,8.52
2018-10-21T03:09:41.083Z,8.41
2018-10-21T03:10:41.345Z,8.41
2018-10-21T03:11:41.339Z,8.36
2018-10-21T03:12:41.090Z,8.28
2018-10-21T03:13:40.811Z,8.2
2018-10-21T03:14:41.051Z,8.19
2018-10-21T03:15:41.058Z,8.06
2018-10-21T03:16:41.298Z,8.06
2018-10-21T03:17:41.316Z,8.09
2018-10-21T03:18:41.327Z,8.08
2018-10-21T03:19:41.289Z,8.06
2018-10-21T03:20:41.269Z,8.05
2018-10-21T03:21:41.297Z,8.18
2018-10-21T03:22:41.016Z,8.18
2018-10-21T03:23:41.366Z,8.15
2018-10-21T03:24:40.990Z,8.12
2018-10-21T03:25:40.975Z,8.09
2018-10-21T03:26:41.018Z,8.05
2018-10-21T03:27:40.991Z,8
2018-10-21T03:28:41.223Z,8.01
2018-10-21T03:29:41.235Z,7.8
2018-10-21T03:30:41.248Z,7.87
2018-10-21T03:31:40.991Z,7.93
2018-10-21T03:32:41.251Z,7.82
2018-10-21T03:33:41.608Z,7.82
2018-10-21T03:34:41.193Z,7.82
2018-10-21T03:35:41.252Z,7.8
2018-10-21T03:36:41.173Z,7.88
2018-10-21T03:37:41.177Z,7.95
2018-10-21T03:38:40.896Z,7.9
2018-10-21T03:39:40.633Z,7.95
2018-10-21T03:40:41.145Z,7.91
2018-10-21T03:41:40.617Z,7.87
2018-10-21T03:42:41.133Z,7.94
2018-10-21T03:43:41.127Z,7.85
2018-10-21T03:44:40.876Z,7.87
2018-10-21T03:45:41.112Z,7.85
2018-10-21T03:46:40.838Z,7.88
2018-10-21T03:47:40.842Z,7.95
2018-10-21T03:48:41.103Z,7.88
2018-10-21T03:49:41.039Z,7.98
2018-10-21T03:50:40.560Z,7.95
2018-10-21T03:51:41.069Z,7.98
2018-10-21T03:52:41.102Z,8.06
2018-10-21T03:53:40.832Z,8.13
2018-10-21T03:54:40.790Z,8.18
2018-10-21T03:55:41.042Z,8.13
2018-10-21T03:56:40.782Z,8.2
2018-10-21T03:57:41.023Z,8.19
2018-10-21T03:58:40.770Z,8.24
2018-10-21T03:59:40.774Z,8.3
2018-10-21T04:00:41.015Z,8.26
2018-10-21T04:01:40.741Z,8.24
2018-10-21T04:02:40.497Z,8.3
2018-10-21T04:03:41.022Z,8.23
2018-10-21T04:04:40.989Z,8.24
2018-10-21T04:05:40.980Z,8.27
2018-10-21T04:06:40.723Z,8.27
2018-10-21T04:07:40.721Z,8.26
2018-10-21T04:08:40.967Z,8.16
2018-10-21T04:09:40.697Z,8.27
2018-10-21T04:10:40.441Z,8.19
2018-10-21T04:11:40.939Z,8.19
2018-10-21T04:12:40.948Z,8.18
2018-10-21T04:13:40.921Z,8.2
2018-10-21T04:14:40.944Z,8.18
2018-10-21T04:15:40.419Z,8.13
2018-10-21T04:16:40.654Z,8.19
2018-10-21T04:17:40.924Z,8.16
2018-10-21T04:18:40.893Z,8.23
2018-10-21T04:19:41.430Z,8.18
2018-10-21T04:20:40.894Z,8.18
2018-10-21T04:21:40.898Z,8.06
2018-10-21T04:22:40.352Z,8.09
2018-10-21T04:23:40.344Z,8.08
2018-10-21T04:24:40.342Z,8.05
2018-10-21T04:25:40.856Z,8.05
2018-10-21T04:26:40.850Z,7.91
2018-10-21T04:27:40.845Z,7.97
2018-10-21T04:28:40.849Z,7.87
2018-10-21T04:29:40.836Z,7.93
2018-10-21T04:30:40.840Z,7.91
2018-10-21T04:31:40.811Z,8
2018-10-21T04:32:40.564Z,8.03
2018-10-21T04:33:40.825Z,8.05
2018-10-21T04:34:40.294Z,8.01
2018-10-21T04:35:41.046Z,8.13
2018-10-21T04:36:40.532Z,8.19
2018-10-21T04:37:41.179Z,8.23
2018-10-21T04:38:40.528Z,8.27
2018-10-21T04:39:40.765Z,8.19
2018-10-21T04:40:40.752Z,8.16
2018-10-21T04:41:40.485Z,8.18
2018-10-21T04:42:40.734Z,8.19
2018-10-21T04:43:40.728Z,8.26
2018-10-21T04:44:40.748Z,8.28
2018-10-21T04:45:40.212Z,8.28
2018-10-21T04:46:40.259Z,8.27
2018-10-21T04:47:40.457Z,8.36
2018-10-21T04:48:40.448Z,8.41
2018-10-21T04:49:40.453Z,8.44
2018-10-21T04:50:40.187Z,8.45
2018-10-21T04:51:40.676Z,8.44
2018-10-21T04:52:40.420Z,8.44
2018-10-21T04:53:40.675Z,8.38
2018-10-21T04:54:40.674Z,8.42
2018-10-21T04:55:40.472Z,8.41
2018-10-21T04:56:40.173Z,8.41
2018-10-21T04:57:40.662Z,8.31
2018-10-21T04:58:40.154Z,8.28
2018-10-21T04:59:40.386Z,8.16
2018-10-21T05:00:40.789Z,8.15
2018-10-21T05:01:40.623Z,8.2
2018-10-21T05:02:40.631Z,8.34
2018-10-21T05:03:40.626Z,8.31
2018-10-21T05:04:40.366Z,8.33
2018-10-21T05:05:40.611Z,8.31
2018-10-21T05:06:40.094Z,8.34
2018-10-21T05:07:41.088Z,8.27
2018-10-21T05:08:40.340Z,8.44
2018-10-21T05:09:40.599Z,8.41
2018-10-21T05:10:40.320Z,8.45
2018-10-21T05:11:40.310Z,8.49
2018-10-21T05:12:40.579Z,8.52
2018-10-21T05:13:40.582Z,8.52
2018-10-21T05:14:40.303Z,8.53
2018-10-21T05:15:40.305Z,8.52
2018-10-21T05:16:40.504Z,8.55
2018-10-21T05:17:40.032Z,8.6
2018-10-21T05:18:40.539Z,8.51
2018-10-21T05:19:40.271Z,8.6
2018-10-21T05:20:40.279Z,8.61
2018-10-21T05:21:40.003Z,8.6
2018-10-21T05:22:40.252Z,8.52
2018-10-21T05:23:40.498Z,8.46
2018-10-21T05:24:40.511Z,8.49
2018-10-21T05:25:40.231Z,8.55
2018-10-21T05:26:40.237Z,8.42
2018-10-21T05:27:39.968Z,8.49
2018-10-21T05:28:40.222Z,8.46
2018-10-21T05:29:40.211Z,8.42
2018-10-21T05:30:40.014Z,8.46
2018-10-21T05:31:39.935Z,8.51
2018-10-21T05:32:40.197Z,8.38
2018-10-21T05:33:40.203Z,8.42
2018-10-21T05:34:40.435Z,8.46
2018-10-21T05:35:40.433Z,8.38
2018-10-21T05:36:40.173Z,8.49
2018-10-21T05:37:40.433Z,8.51
2018-10-21T05:38:40.152Z,8.55
2018-10-21T05:39:40.408Z,8.53
2018-10-21T05:40:40.683Z,8.56
2018-10-21T05:41:40.162Z,8.58
2018-10-21T05:42:40.400Z,8.56
2018-10-21T05:43:39.879Z,8.56
2018-10-21T05:44:40.383Z,8.53
2018-10-21T05:45:40.122Z,8.52
2018-10-21T05:46:40.550Z,8.56
2018-10-21T05:47:40.388Z,8.6
2018-10-21T05:48:40.115Z,8.63
2018-10-21T05:49:40.363Z,8.56
2018-10-21T05:50:41.417Z,8.6
2018-10-21T05:51:40.339Z,8.58
2018-10-21T05:52:40.108Z,8.6
2018-10-21T05:53:40.061Z,8.58
2018-10-21T05:54:40.321Z,8.61
2018-10-21T05:55:40.144Z,8.55
2018-10-21T05:56:40.332Z,8.63
2018-10-21T05:57:40.349Z,8.63
2018-10-21T05:58:40.310Z,8.71
2018-10-21T05:59:40.032Z,8.6
2018-10-21T06:00:40.051Z,8.56
2018-10-21T06:01:40.286Z,8.6
2018-10-21T06:02:40.282Z,8.55
2018-10-21T06:03:39.765Z,8.67
2018-10-21T06:04:40.016Z,8.58
2018-10-21T06:05:40.280Z,8.41
2018-10-21T06:06:40.001Z,8.41
2018-10-21T06:07:40.017Z,8.19
2018-10-21T06:08:39.735Z,8.06
2018-10-21T06:09:39.727Z,8.19
2018-10-21T06:10:39.997Z,8.05
2018-10-21T06:11:40.244Z,8.03
2018-10-21T06:12:40.228Z,8.05
2018-10-21T06:13:40.204Z,8.16
2018-10-21T06:14:39.954Z,8.18
2018-10-21T06:15:41.196Z,8.06
2018-10-21T06:16:40.198Z,8.13
2018-10-21T06:17:39.675Z,8.13
2018-10-21T06:18:39.917Z,8.15
2018-10-21T06:19:40.208Z,8.19
2018-10-21T06:20:40.188Z,8.23
2018-10-21T06:21:40.159Z,8.26
2018-10-21T06:22:40.168Z,8.3
2018-10-21T06:23:40.021Z,8.28
2018-10-21T06:24:39.887Z,8.38
2018-10-21T06:25:39.870Z,8.42
2018-10-21T06:26:39.977Z,8.48
2018-10-21T06:27:40.353Z,8.56
2018-10-21T06:28:40.109Z,8.53
2018-10-21T06:29:40.128Z,8.73
2018-10-21T06:30:40.124Z,8.73
2018-10-21T06:31:39.843Z,8.81
2018-10-21T06:32:40.145Z,8.79
2018-10-21T06:33:40.005Z,8.56
2018-10-21T06:34:40.081Z,8.56
2018-10-21T06:35:39.808Z,8.56
2018-10-21T06:36:39.889Z,8.38
2018-10-21T06:37:40.055Z,8.44
2018-10-21T06:38:39.788Z,8.41
2018-10-21T06:39:39.780Z,8.42
2018-10-21T06:40:39.781Z,8.36
2018-10-21T06:41:40.326Z,8.27
2018-10-21T06:42:39.777Z,8.42
2018-10-21T06:43:40.017Z,8.41
2018-10-21T06:44:39.756Z,8.41
2018-10-21T06:45:40.309Z,8.44
2018-10-21T06:46:40.010Z,8.36
2018-10-21T06:47:39.754Z,8.37
2018-10-21T06:48:40.250Z,8.3
2018-10-21T06:49:39.756Z,8.24
2018-10-21T06:50:39.719Z,8.2
2018-10-21T06:51:40.787Z,8.31
2018-10-21T06:52:39.719Z,8.45
2018-10-21T06:53:39.717Z,8.38
2018-10-21T06:54:39.448Z,8.38
2018-10-21T06:55:39.944Z,8.37
2018-10-21T06:56:40.172Z,8.41
2018-10-21T06:57:39.728Z,8.55
2018-10-21T06:58:39.926Z,8.56
2018-10-21T06:59:39.657Z,8.58
2018-10-21T07:00:39.941Z,8.71
2018-10-21T07:01:39.913Z,8.74
2018-10-21T07:02:39.657Z,8.82
2018-10-21T07:03:39.643Z,8.87
2018-10-21T07:04:39.922Z,8.84
2018-10-21T07:05:39.882Z,9.02
2018-10-21T07:06:39.864Z,9.03
2018-10-21T07:07:39.632Z,9.13
2018-10-21T07:08:39.861Z,9.13
2018-10-21T07:09:39.598Z,9.14
2018-10-21T07:10:39.900Z,9.19
2018-10-21T07:11:39.588Z,9.19
2018-10-21T07:12:39.842Z,9.13
2018-10-21T07:13:39.831Z,9.23
2018-10-21T07:14:39.839Z,9.16
2018-10-21T07:15:40.155Z,9.32
2018-10-21T07:16:39.461Z,9.29
2018-10-21T07:17:39.568Z,9.41
2018-10-21T07:18:39.821Z,9.4
2018-10-21T07:19:39.547Z,9.44
2018-10-21T07:20:39.554Z,9.48
2018-10-21T07:21:39.804Z,9.54
2018-10-21T07:22:39.265Z,9.54
2018-10-21T07:23:39.798Z,9.66
2018-10-21T07:24:39.782Z,9.68
2018-10-21T07:25:39.516Z,9.77
2018-10-21T07:26:39.515Z,9.84
2018-10-21T07:27:39.510Z,9.87
2018-10-21T07:28:40.175Z,9.98
2018-10-21T07:29:39.775Z,9.98
2018-10-21T07:30:39.746Z,10.05
2018-10-21T07:31:39.743Z,10.13
2018-10-21T07:32:39.508Z,10.13
2018-10-21T07:33:39.484Z,10.13
2018-10-21T07:34:39.480Z,10.16
2018-10-21T07:35:39.785Z,10.34
2018-10-21T07:36:39.471Z,10.31
2018-10-21T07:37:39.718Z,10.34
2018-10-21T07:38:39.701Z,10.41
2018-10-21T07:39:39.458Z,10.51
2018-10-21T07:40:39.193Z,10.56
2018-10-21T07:41:39.443Z,10.61
2018-10-21T07:42:39.450Z,10.75
2018-10-21T07:43:39.684Z,10.76
2018-10-21T07:44:39.446Z,10.86
2018-10-21T07:45:39.488Z,10.97
2018-10-21T07:46:39.696Z,10.92
2018-10-21T07:47:39.681Z,10.96
2018-10-21T07:48:39.670Z,10.79
2018-10-21T07:49:39.415Z,10.75
2018-10-21T07:50:39.450Z,10.9
2018-10-21T07:51:39.162Z,10.97
2018-10-21T07:52:40.996Z,11.15
2018-10-21T07:53:39.650Z,11.36
2018-10-21T07:54:39.136Z,11.43
2018-10-21T07:55:39.561Z,11.52
2018-10-21T07:56:39.377Z,11.75
2018-10-21T07:57:39.652Z,12.04
2018-10-21T07:58:39.654Z,12.36
2018-10-21T07:59:39.413Z,12.53
2018-10-21T08:00:39.696Z,12.86
2018-10-21T08:01:39.627Z,13.22
2018-10-21T08:02:39.381Z,13.53
2018-10-21T08:03:39.646Z,13.7
2018-10-21T08:04:39.631Z,13.87
2018-10-21T08:05:39.212Z,13.9
2018-10-21T08:06:39.272Z,14
2018-10-21T08:07:41.353Z,14.2
2018-10-21T08:08:39.471Z,14.35
2018-10-21T08:09:39.367Z,14.4
2018-10-21T08:10:39.460Z,14.03
2018-10-21T08:11:39.626Z,14.03
2018-10-21T08:12:39.359Z,13.79
2018-10-21T08:13:39.126Z,13.72
2018-10-21T08:14:39.725Z,13.67
2018-10-21T08:15:39.376Z,13.57
2018-10-21T08:16:39.111Z,13.46
2018-10-21T08:17:39.376Z,13.39
2018-10-21T08:18:39.386Z,13.05
2018-10-21T08:19:39.360Z,12.9
2018-10-21T08:20:39.614Z,12.75
2018-10-21T08:21:39.394Z,12.49
2018-10-21T08:22:39.652Z,12.32
2018-10-21T08:23:39.367Z,12.12
2018-10-21T08:24:39.441Z,12.09
2018-10-21T08:25:39.671Z,11.81
2018-10-21T08:26:39.343Z,11.6
2018-10-21T08:27:39.608Z,11.37
2018-10-21T08:28:39.613Z,11.19
2018-10-21T08:29:39.098Z,10.94
2018-10-21T08:30:39.621Z,10.99
2018-10-21T08:31:39.349Z,10.87
2018-10-21T08:32:39.349Z,10.84
2018-10-21T08:33:39.088Z,10.93
2018-10-21T08:34:39.084Z,10.9
2018-10-21T08:35:39.056Z,10.97
2018-10-21T08:36:39.581Z,11.04
2018-10-21T08:37:39.057Z,11.15
2018-10-21T08:38:39.080Z,11.44
2018-10-21T08:39:39.332Z,11.5
2018-10-21T08:40:39.649Z,11.6
2018-10-21T08:41:39.306Z,11.75
2018-10-21T08:42:39.081Z,11.84
2018-10-21T08:43:39.303Z,11.88
2018-10-21T08:44:39.084Z,11.97
2018-10-21T08:45:39.124Z,12.13
2018-10-21T08:46:40.016Z,12.17
2018-10-21T08:47:39.034Z,12.18
2018-10-21T08:48:39.531Z,12.29
2018-10-21T08:49:39.032Z,12.37
2018-10-21T08:50:39.553Z,12.21
2018-10-21T08:51:39.558Z,12.15
2018-10-21T08:52:39.302Z,12.07
2018-10-21T08:53:39.553Z,11.97
2018-10-21T08:54:39.030Z,11.83
2018-10-21T08:55:39.273Z,11.77
2018-10-21T08:56:39.277Z,11.75
2018-10-21T08:57:39.019Z,11.81
2018-10-21T08:58:39.532Z,11.72
2018-10-21T08:59:39.266Z,11.7
2018-10-21T09:00:39.559Z,11.81
2018-10-21T09:01:39.261Z,11.78
2018-10-21T09:02:39.541Z,11.84
2018-10-21T09:03:39.250Z,11.84
2018-10-21T09:04:39.270Z,11.75
2018-10-21T09:05:39.068Z,11.54
2018-10-21T09:06:39.028Z,11.59
2018-10-21T09:07:39.238Z,11.48
2018-10-21T09:08:39.246Z,11.44
2018-10-21T09:09:39.238Z,11.47
2018-10-21T09:10:40.148Z,11.57
2018-10-21T09:11:39.231Z,11.65
2018-10-21T09:12:39.220Z,11.81
2018-10-21T09:13:38.969Z,11.83
2018-10-21T09:14:39.266Z,11.94
2018-10-21T09:15:39.705Z,12.09
2018-10-21T09:16:39.874Z,12.18
2018-10-21T09:17:39.205Z,12.22
2018-10-21T09:18:39.247Z,12.24
2018-10-21T09:19:39.466Z,12.27
2018-10-21T09:20:39.446Z,12.32
2018-10-21T09:21:39.447Z,12.22
2018-10-21T09:22:39.199Z,12.13
2018-10-21T09:23:39.286Z,12.03
2018-10-21T09:24:39.201Z,12.02
2018-10-21T09:25:39.486Z,11.9
2018-10-21T09:26:39.199Z,11.84
2018-10-21T09:27:38.939Z,11.72
2018-10-21T09:28:39.178Z,11.7
2018-10-21T09:29:39.432Z,11.69
2018-10-21T09:30:39.233Z,11.55
2018-10-21T09:31:39.161Z,11.52
2018-10-21T09:32:39.182Z,11.55
2018-10-21T09:33:39.174Z,11.63
2018-10-21T09:34:38.912Z,11.7
2018-10-21T09:35:39.452Z,11.87
2018-10-21T09:36:39.418Z,11.94
2018-10-21T09:37:39.168Z,12.12
2018-10-21T09:38:39.414Z,12.27
2018-10-21T09:39:39.160Z,12.32
2018-10-21T09:40:38.921Z,12.37
2018-10-21T09:41:39.402Z,12.39
2018-10-21T09:42:39.139Z,12.43
2018-10-21T09:43:39.148Z,12.49
2018-10-21T09:44:39.153Z,12.61
2018-10-21T09:45:39.230Z,12.67
2018-10-21T09:46:39.431Z,12.79
2018-10-21T09:47:39.405Z,12.9
2018-10-21T09:48:39.114Z,12.97
2018-10-21T09:49:39.147Z,13
2018-10-21T09:50:39.163Z,13.03
2018-10-21T09:51:39.378Z,13.23
2018-10-21T09:52:39.267Z,13.25
2018-10-21T09:53:39.361Z,13.16
2018-10-21T09:54:39.110Z,13.18
2018-10-21T09:55:39.152Z,13.22
2018-10-21T09:56:39.392Z,13.16
2018-10-21T09:57:39.099Z,13.16
2018-10-21T09:58:38.888Z,13.28
2018-10-21T09:59:39.116Z,13.35
2018-10-21T10:00:39.189Z,13.35
2018-10-21T10:01:39.095Z,13.41
2018-10-21T10:02:39.099Z,13.49
2018-10-21T10:03:39.352Z,13.47
2018-10-21T10:04:39.114Z,13.63
2018-10-21T10:05:39.438Z,13.53
2018-10-21T10:06:38.829Z,13.54
2018-10-21T10:07:39.088Z,13.62
2018-10-21T10:08:39.129Z,13.56
2018-10-21T10:09:39.090Z,13.54
2018-10-21T10:10:39.172Z,13.67
2018-10-21T10:11:38.806Z,13.7
2018-10-21T10:12:39.071Z,13.68
2018-10-21T10:13:39.083Z,13.71
2018-10-21T10:14:39.360Z,13.79
2018-10-21T10:15:39.121Z,13.86
2018-10-21T10:16:39.082Z,13.96
2018-10-21T10:17:39.266Z,13.9
2018-10-21T10:18:39.087Z,13.9
2018-10-21T10:19:39.121Z,13.97
2018-10-21T10:20:39.099Z,13.96
2018-10-21T10:21:39.299Z,14.05
2018-10-21T10:22:40.418Z,14.11
2018-10-21T10:23:39.745Z,14.1
2018-10-21T10:24:38.796Z,14.12
2018-10-21T10:25:39.127Z,14.03
2018-10-21T10:26:39.304Z,14.11
2018-10-21T10:27:39.317Z,14.14
2018-10-21T10:28:39.044Z,14.28
2018-10-21T10:29:39.073Z,14.4
2018-10-21T10:30:39.002Z,14.23
2018-10-21T10:31:39.298Z,14.36
2018-10-21T10:32:39.073Z,14.4
2018-10-21T10:33:39.105Z,14.43
2018-10-21T10:34:39.299Z,14.44
2018-10-21T10:35:39.366Z,14.54
2018-10-21T10:36:39.039Z,14.51
2018-10-21T10:37:39.023Z,14.6
2018-10-21T10:38:38.794Z,14.59
2018-10-21T10:39:39.266Z,14.63
2018-10-21T10:40:39.118Z,14.6
2018-10-21T10:41:39.151Z,14.68
2018-10-21T10:42:39.012Z,14.81
2018-10-21T10:43:39.025Z,14.91
2018-10-21T10:44:39.051Z,14.97
2018-10-21T10:45:38.838Z,15.1
2018-10-21T10:46:39.013Z,15.04
2018-10-21T10:47:39.303Z,15.19
2018-10-21T10:48:39.005Z,15.21
2018-10-21T10:49:39.264Z,15.28
2018-10-21T10:50:39.073Z,15.24
2018-10-21T10:51:39.256Z,15.21
2018-10-21T10:52:39.261Z,15.22
2018-10-21T10:53:39.275Z,15.21
2018-10-21T10:54:38.988Z,15.15
2018-10-21T10:55:39.347Z,15.18
2018-10-21T10:56:39.266Z,15.15
2018-10-21T10:57:38.984Z,15.04
2018-10-21T10:58:38.992Z,14.97
2018-10-21T10:59:39.281Z,14.97
2018-10-21T11:00:38.832Z,14.94
2018-10-21T11:01:39.319Z,15.03
2018-10-21T11:02:39.032Z,14.96
2018-10-21T11:03:38.998Z,15.02
2018-10-21T11:04:38.718Z,15.03
2018-10-21T11:05:39.027Z,15.02
2018-10-21T11:06:38.981Z,14.99
2018-10-21T11:07:39.248Z,15.02
2018-10-21T11:08:38.973Z,15.03
2018-10-21T11:09:38.722Z,15.17
2018-10-21T11:10:38.996Z,15.21
2018-10-21T11:11:38.970Z,15.21
2018-10-21T11:12:39.287Z,15.28
2018-10-21T11:13:38.979Z,15.29
2018-10-21T11:14:39.126Z,15.36
2018-10-21T11:15:38.997Z,15.35
2018-10-21T11:16:38.976Z,15.39
2018-10-21T11:17:38.719Z,15.39
2018-10-21T11:18:39.003Z,15.47
2018-10-21T11:19:39.221Z,15.57
2018-10-21T11:20:38.757Z,15.55
2018-10-21T11:21:39.328Z,15.58
2018-10-21T11:22:39.460Z,15.51
2018-10-21T11:23:45.126Z,15.54
2018-10-21T11:24:38.775Z,15.54
2018-10-21T11:25:40.342Z,15.55
2018-10-21T11:26:39.422Z,15.58
2018-10-21T11:27:38.840Z,15.57
2018-10-21T11:28:39.164Z,15.52
2018-10-21T11:29:39.081Z,15.43
2018-10-21T11:30:38.921Z,15.51
2018-10-21T11:31:38.920Z,15.49
2018-10-21T11:32:39.440Z,15.65
2018-10-21T11:33:39.337Z,15.7
2018-10-21T11:34:39.885Z,15.62
2018-10-21T11:35:39.496Z,15.7
2018-10-21T11:36:39.231Z,15.79
2018-10-21T11:37:39.273Z,15.86
2018-10-21T11:38:39.472Z,15.88
2018-10-21T11:39:38.843Z,15.94
2018-10-21T11:40:39.681Z,16.08
2018-10-21T11:41:39.143Z,15.98
2018-10-21T11:42:39.084Z,15.94
2018-10-21T11:43:39.199Z,15.9
2018-10-21T11:44:39.378Z,15.83
2018-10-21T11:45:39.288Z,15.91
2018-10-21T11:46:38.721Z,15.94
2018-10-21T11:47:38.790Z,15.98
2018-10-21T11:48:40.073Z,16.05
2018-10-21T11:49:39.037Z,16.08
2018-10-21T11:50:39.164Z,16.08
2018-10-21T11:51:38.837Z,16.2
2018-10-21T11:52:38.895Z,16.35
2018-10-21T11:53:39.371Z,16.39
2018-10-21T11:54:39.064Z,16.46
2018-10-21T11:55:39.221Z,16.42
2018-10-21T11:56:39.349Z,16.39
2018-10-21T11:57:39.104Z,16.32
2018-10-21T11:58:39.101Z,16.28
2018-10-21T11:59:39.270Z,16.17
2018-10-21T12:00:39.245Z,16.16
2018-10-21T12:01:38.793Z,16.32
2018-10-21T12:02:39.337Z,16.26
2018-10-21T12:03:39.052Z,16.28
2018-10-21T12:04:38.776Z,16.17
2018-10-21T12:05:39.071Z,16.17
2018-10-21T12:06:39.141Z,16.28
2018-10-21T12:07:39.308Z,16.12
2018-10-21T12:08:38.765Z,16.15
2018-10-21T12:09:39.206Z,16.17
2018-10-21T12:10:38.991Z,16.28
2018-10-21T12:11:39.301Z,16.31
2018-10-21T12:12:39.425Z,16.38
2018-10-21T12:13:39.072Z,16.35
2018-10-21T12:14:38.817Z,16.51
2018-10-21T12:15:39.151Z,16.54
2018-10-21T12:16:39.102Z,16.5
2018-10-21T12:17:38.708Z,16.51
2018-10-21T12:18:39.152Z,16.53
2018-10-21T12:19:39.139Z,16.49
2018-10-21T12:20:39.436Z,16.5
2018-10-21T12:21:38.802Z,16.53
2018-10-21T12:22:39.442Z,16.65
2018-10-21T12:23:39.411Z,16.71
2018-10-21T12:24:40.349Z,16.71
2018-10-21T12:25:39.756Z,16.69
2018-10-21T12:26:38.821Z,16.65
2018-10-21T12:27:39.235Z,16.76
2018-10-21T12:28:39.079Z,16.81
2018-10-21T12:29:38.817Z,16.78
2018-10-21T12:30:39.289Z,16.97
2018-10-21T12:31:39.323Z,17.02
2018-10-21T12:32:39.258Z,16.97
2018-10-21T12:33:39.368Z,16.99
2018-10-21T12:34:39.177Z,16.97
2018-10-21T12:35:39.192Z,16.84
2018-10-21T12:36:39.029Z,16.83
2018-10-21T12:37:39.459Z,16.96
2018-10-21T12:38:38.749Z,16.94
2018-10-21T12:39:38.810Z,16.91
2018-10-21T12:40:38.836Z,17.02
2018-10-21T12:41:39.017Z,17.05
2018-10-21T12:42:38.791Z,17.02
2018-10-21T12:43:38.769Z,17.06
2018-10-21T12:44:38.842Z,17.02
2018-10-21T12:45:38.882Z,17.09
2018-10-21T12:46:39.033Z,17.12
2018-10-21T12:47:39.694Z,17.06
2018-10-21T12:48:39.292Z,17.04
2018-10-21T12:49:38.827Z,17.05
2018-10-21T12:50:39.168Z,16.99
2018-10-21T12:51:38.713Z,17.05
2018-10-21T12:52:38.781Z,17.09
2018-10-21T12:53:39.395Z,17.09
2018-10-21T12:54:40.264Z,17.04
2018-10-21T12:55:39.384Z,17.01
2018-10-21T12:56:39.402Z,16.96
2018-10-21T12:57:39.070Z,17.01
2018-10-21T12:58:39.097Z,17.09
2018-10-21T12:59:39.331Z,17.15
2018-10-21T13:00:39.143Z,17.14
2018-10-21T13:01:39.067Z,17.27
2018-10-21T13:02:39.341Z,17.31
2018-10-21T13:03:39.064Z,17.33
2018-10-21T13:04:39.120Z,17.34
2018-10-21T13:05:39.527Z,17.38
2018-10-21T13:06:39.123Z,17.33
2018-10-21T13:07:38.897Z,17.29
2018-10-21T13:08:38.921Z,17.26
2018-10-21T13:09:38.898Z,17.15